createdAt,value
2023-04-19T00:00:49.681Z,103317.75
2023-04-19T00:03:17.442Z,103324.06
2023-04-19T00:05:45.395Z,103320.63
2023-04-19T00:08:14.385Z,103317.97
2023-04-19T00:10:42.477Z,103316.31
2023-04-19T00:13:10.605Z,103321.50
2023-04-19T00:15:39.054Z,103315.25
2023-04-19T00:18:07.314Z,103320.63
2023-04-19T00:20:35.010Z,103318.09
2023-04-19T00:23:03.692Z,103315.56
2023-04-19T00:25:34.562Z,103316.63
2023-04-19T00:28:03.956Z,103318.66
2023-04-19T00:30:31.776Z,103323.13
2023-04-19T00:32:59.509Z,103316.22
2023-04-19T00:35:27.141Z,103319.09
2023-04-19T00:37:54.775Z,103310.50
2023-04-19T00:40:22.386Z,103314.09
2023-04-19T00:42:51.591Z,103314.31
2023-04-19T00:45:19.400Z,103307.53
2023-04-19T00:47:47.189Z,103310.94
2023-04-19T00:50:14.985Z,103316.31
2023-04-19T00:52:42.818Z,103310.28
2023-04-19T00:55:11.174Z,103311.25
2023-04-19T00:57:39.215Z,103314.66
2023-04-19T01:00:10.164Z,103317.31
2023-04-19T01:02:37.904Z,103319.09
2023-04-19T01:05:06.384Z,103319.09
2023-04-19T01:07:34.595Z,103322.81
2023-04-19T01:10:02.272Z,103318.56
2023-04-19T01:12:30.020Z,103318.75
2023-04-19T01:14:57.713Z,103321.53
2023-04-19T01:17:28.053Z,103316.31
2023-04-19T01:20:01.400Z,103314.75
2023-04-19T01:22:31.980Z,103321.09
2023-04-19T01:24:59.664Z,103316.00
2023-04-19T01:27:27.409Z,103310.19
2023-04-19T01:29:55.229Z,103312.84
2023-04-19T01:32:22.911Z,103323.75
2023-04-19T01:34:52.074Z,103316.66
2023-04-19T01:37:19.738Z,103312.41
2023-04-19T01:39:48.699Z,103319.63
2023-04-19T01:42:16.330Z,103316.97
2023-04-19T01:44:43.917Z,103322.28
2023-04-19T01:47:11.619Z,103322.38
2023-04-19T01:49:39.258Z,103323.34
2023-04-19T01:52:06.880Z,103320.78
2023-04-19T01:54:34.461Z,103316.41
2023-04-19T01:57:03.570Z,103316.22
2023-04-19T01:59:31.184Z,103316.13
2023-04-19T02:01:58.890Z,103310.72
2023-04-19T02:04:26.675Z,103302.03
2023-04-19T02:06:54.715Z,103306.59
2023-04-19T02:09:22.359Z,103305.09
2023-04-19T02:11:50.001Z,103311.25
2023-04-19T02:14:19.104Z,103307.94
2023-04-19T02:16:46.859Z,103300.13
2023-04-19T02:19:14.598Z,103299.28
2023-04-19T02:21:42.179Z,103302.13
2023-04-19T02:24:09.795Z,103298.72
2023-04-19T02:26:37.442Z,103297.13
2023-04-19T02:29:06.814Z,103288.56
2023-04-19T02:31:37.485Z,103290.34
2023-04-19T02:34:05.536Z,103296.50
2023-04-19T02:36:33.589Z,103281.53
2023-04-19T02:39:01.216Z,103290.63
2023-04-19T02:41:28.793Z,103288.09
2023-04-19T02:43:56.575Z,103285.66
2023-04-19T02:46:24.210Z,103283.94
2023-04-19T02:48:53.444Z,103287.44
2023-04-19T02:51:21.133Z,103284.69
2023-04-19T02:53:48.755Z,103283.94
2023-04-19T02:56:16.497Z,103276.75
2023-04-19T02:58:44.196Z,103271.56
2023-04-19T03:01:11.919Z,103285.44
2023-04-19T03:03:40.272Z,103277.09
2023-04-19T03:06:09.924Z,103268.84
2023-04-19T03:08:37.498Z,103268.56
2023-04-19T03:11:05.353Z,103263.88
2023-04-19T03:13:32.946Z,103266.44
2023-04-19T03:16:00.567Z,103258.47
2023-04-19T03:18:28.258Z,103265.69
2023-04-19T03:20:55.817Z,103261.53
2023-04-19T03:23:25.261Z,103253.81
2023-04-19T03:25:52.881Z,103247.03
2023-04-19T03:28:20.816Z,103253.47
2023-04-19T03:30:48.658Z,103246.03
2023-04-19T03:33:16.240Z,103243.72
2023-04-19T03:35:45.069Z,103247.50
2023-04-19T03:38:12.870Z,103253.13
2023-04-19T03:40:41.843Z,103255.66
2023-04-19T03:43:09.409Z,103247.72
2023-04-19T03:45:36.986Z,103244.31
2023-04-19T03:48:04.924Z,103246.31
2023-04-19T03:50:33.045Z,103246.31
2023-04-19T03:53:00.735Z,103247.28
2023-04-19T03:55:28.296Z,103243.03
2023-04-19T03:57:57.316Z,103243.88
2023-04-19T04:00:25.065Z,103244.94
2023-04-19T04:02:52.811Z,103243.25
2023-04-19T04:05:20.732Z,103248.44
2023-04-19T04:07:48.362Z,103250.13
2023-04-19T04:10:16.326Z,103242.94
2023-04-19T04:12:43.942Z,103247.28
2023-04-19T04:15:13.351Z,103239.13
2023-04-19T04:17:40.999Z,103251.94
2023-04-19T04:20:11.729Z,103241.16
2023-04-19T04:22:42.032Z,103239.06
2023-04-19T04:25:10.296Z,103241.91
2023-04-19T04:27:38.001Z,103241.22
2023-04-19T04:30:06.488Z,103235.50
2023-04-19T04:32:36.207Z,103242.03
2023-04-19T04:35:04.076Z,103239.56
2023-04-19T04:37:33.916Z,103232.41
2023-04-19T04:40:01.937Z,103242.53
2023-04-19T04:42:31.439Z,103232.97
2023-04-19T04:45:01.601Z,103235.66
2023-04-19T04:47:32.341Z,103229.06
2023-04-19T04:50:02.416Z,103228.91
2023-04-19T04:52:30.406Z,103235.50
2023-04-19T04:54:58.072Z,103229.91
2023-04-19T04:57:25.764Z,103224.22
2023-04-19T04:59:53.333Z,103221.78
2023-04-19T05:02:22.448Z,103213.75
2023-04-19T05:04:50.253Z,103214.38
2023-04-19T05:07:19.330Z,103219.78
2023-04-19T05:09:46.937Z,103208.06
2023-04-19T05:12:14.620Z,103225.50
2023-04-19T05:14:42.169Z,103229.03
2023-04-19T05:17:09.865Z,103216.50
2023-04-19T05:19:37.480Z,103221.13
2023-04-19T05:22:05.136Z,103221.41
2023-04-19T05:24:34.118Z,103218.41
2023-04-19T05:27:02.058Z,103231.78
2023-04-19T05:29:29.738Z,103233.91
2023-04-19T05:31:58.758Z,103242.16
2023-04-19T05:34:26.355Z,103238.97
2023-04-19T05:36:54.003Z,103231.44
2023-04-19T05:39:21.636Z,103230.91
2023-04-19T05:41:50.792Z,103223.41
2023-04-19T05:44:18.422Z,103228.88
2023-04-19T05:46:46.071Z,103231.47
2023-04-19T05:49:13.707Z,103229.06
2023-04-19T05:51:41.325Z,103221.41
2023-04-19T05:54:12.448Z,103214.94
2023-04-19T05:56:40.106Z,103215.09
2023-04-19T05:59:11.430Z,103230.84
2023-04-19T06:01:39.198Z,103216.41
2023-04-19T06:04:07.030Z,103222.03
2023-04-19T06:06:34.781Z,103228.28
2023-04-19T06:09:02.450Z,103238.66
2023-04-19T06:11:38.780Z,103237.00
2023-04-19T06:14:13.496Z,103234.50
2023-04-19T06:16:41.189Z,103243.03
2023-04-19T06:19:09.077Z,103240.34
2023-04-19T06:21:36.807Z,103236.63
2023-04-19T06:24:04.858Z,103243.22
2023-04-19T06:26:32.498Z,103235.88
2023-04-19T06:29:00.140Z,103231.38
2023-04-19T06:31:29.257Z,103238.59
2023-04-19T06:33:57.064Z,103230.75
2023-04-19T06:36:24.713Z,103237.50
2023-04-19T06:38:52.320Z,103241.44
2023-04-19T06:41:20.033Z,103241.25
2023-04-19T06:43:47.684Z,103227.19
2023-04-19T06:46:15.836Z,103214.47
2023-04-19T06:48:44.973Z,103228.00
2023-04-19T06:51:12.580Z,103233.63
2023-04-19T06:53:40.146Z,103218.09
2023-04-19T06:56:09.155Z,103211.75
2023-04-19T06:58:36.950Z,103249.06
2023-04-19T07:01:05.222Z,103231.47
2023-04-19T07:03:33.573Z,103237.66
2023-04-19T07:06:02.933Z,103229.38
2023-04-19T07:08:46.509Z,103229.63
2023-04-19T07:11:16.655Z,103235.28
2023-04-19T07:13:44.266Z,103230.19
2023-04-19T07:16:12.496Z,103216.13
2023-04-19T07:18:40.175Z,103222.91
2023-04-19T07:21:09.210Z,103221.03
2023-04-19T07:23:36.972Z,103215.47
2023-04-19T07:26:04.917Z,103220.56
2023-04-19T07:28:32.584Z,103229.53
2023-04-19T07:31:00.977Z,103235.81
2023-04-19T07:33:28.964Z,103216.31
2023-04-19T07:35:56.865Z,103214.00
2023-04-19T07:38:26.111Z,103210.72
2023-04-19T07:40:53.833Z,103205.97
2023-04-19T07:43:21.690Z,103223.97
2023-04-19T07:45:49.703Z,103211.09
2023-04-19T07:48:17.359Z,103222.94
2023-04-19T07:50:45.172Z,103199.72
2023-04-19T07:53:12.792Z,103205.53
2023-04-19T07:55:41.728Z,103209.03
2023-04-19T07:58:09.429Z,103188.47
2023-04-19T08:00:37.906Z,103199.63
2023-04-19T08:03:05.809Z,103186.66
2023-04-19T08:05:33.799Z,103195.78
2023-04-19T08:08:01.424Z,103196.38
2023-04-19T08:10:31.464Z,103194.66
2023-04-19T08:13:05.361Z,103186.91
2023-04-19T08:18:05.789Z,103200.50
2023-04-19T08:20:33.594Z,103181.28
2023-04-19T08:23:10.547Z,103207.59
2023-04-19T08:25:46.314Z,103183.97
2023-04-19T08:28:15.622Z,103207.31
2023-04-19T08:30:43.213Z,103184.69
2023-04-19T08:33:11.691Z,103165.84
2023-04-19T08:35:40.876Z,103178.34
2023-04-19T08:38:08.601Z,103168.78
2023-04-19T08:40:36.734Z,103169.06
2023-04-19T08:43:06.922Z,103159.06
2023-04-19T08:45:37.139Z,103159.22
2023-04-19T08:48:07.085Z,103162.03
2023-04-19T08:50:45.605Z,103152.47
2023-04-19T08:53:25.438Z,103184.25
2023-04-19T08:58:45.883Z,103142.75
2023-04-19T09:04:04.747Z,103156.69
2023-04-19T09:06:38.219Z,103144.06
2023-04-19T09:09:33.370Z,103148.38
2023-04-19T09:12:03.293Z,103160.47
2023-04-19T09:14:30.981Z,103143.84
2023-04-19T09:17:18.169Z,103123.22
2023-04-19T09:19:49.605Z,103118.34
2023-04-19T09:22:17.937Z,103110.69
2023-04-19T09:25:22.693Z,103147.59
2023-04-19T09:27:34.831Z,103097.47
2023-04-19T09:30:04.081Z,103123.22
2023-04-19T09:32:47.543Z,103113.94
2023-04-19T09:35:15.675Z,103110.47
2023-04-19T09:40:23.294Z,103094.00
2023-04-19T09:45:29.867Z,103089.25
2023-04-19T09:48:05.491Z,103092.06
2023-04-19T09:50:35.939Z,103099.19
2023-04-19T09:53:15.039Z,103101.03
2023-04-19T09:55:53.430Z,103105.84
2023-04-19T09:58:34.394Z,103081.22
2023-04-19T10:01:14.960Z,103088.09
2023-04-19T10:03:46.373Z,103071.38
2023-04-19T10:06:35.629Z,103075.88
2023-04-19T10:09:06.123Z,103060.78
2023-04-19T10:11:38.766Z,103076.47
2023-04-19T10:14:08.264Z,103068.28
2023-04-19T10:16:37.107Z,103052.41
2023-04-19T10:19:12.514Z,103055.38
2023-04-19T10:21:42.298Z,103030.47
2023-04-19T10:24:10.367Z,103044.13
2023-04-19T10:27:11.213Z,103050.16
2023-04-19T10:29:57.824Z,103057.78
2023-04-19T10:32:27.863Z,103029.34
2023-04-19T10:35:02.832Z,103027.97
2023-04-19T10:37:32.744Z,103046.56
2023-04-19T10:40:00.495Z,103021.91
2023-04-19T10:43:16.020Z,103043.34
2023-04-19T10:45:43.720Z,103016.03
2023-04-19T10:48:33.600Z,103013.44
2023-04-19T10:51:03.570Z,103043.91
2023-04-19T10:53:47.855Z,102997.69
2023-04-19T10:56:16.548Z,103005.91
2023-04-19T10:59:21.799Z,103005.22
2023-04-19T11:01:52.560Z,103003.25
2023-04-19T11:04:23.253Z,102994.00
2023-04-19T11:07:06.240Z,102987.97
2023-04-19T11:09:35.522Z,103001.91
2023-04-19T11:12:08.203Z,102979.81
2023-04-19T11:14:37.593Z,102977.25
2023-04-19T11:17:15.324Z,102989.53
2023-04-19T11:19:44.573Z,103006.78
2023-04-19T11:22:13.563Z,102985.81
2023-04-19T11:24:46.994Z,102985.81
2023-04-19T11:27:15.266Z,102997.16
2023-04-19T11:29:42.877Z,102976.28
2023-04-19T11:32:10.707Z,102979.81
2023-04-19T11:34:39.202Z,102988.50
2023-04-19T11:37:07.216Z,102988.25
2023-04-19T11:39:46.068Z,102976.53
2023-04-19T11:42:19.357Z,102981.38
2023-04-19T11:44:51.670Z,102990.75
2023-04-19T11:47:19.777Z,102978.16
2023-04-19T11:49:47.455Z,102982.31
2023-04-19T11:52:22.073Z,102977.50
2023-04-19T11:54:51.670Z,102977.50
2023-04-19T11:57:29.477Z,102978.09
2023-04-19T12:00:11.440Z,102975.88
2023-04-19T12:02:40.964Z,102967.50
2023-04-19T12:05:12.536Z,102971.88
2023-04-19T12:08:02.069Z,102964.16
2023-04-19T12:10:31.834Z,102965.81
2023-04-19T12:12:59.886Z,102966.13
2023-04-19T12:15:42.222Z,102957.03
2023-04-19T12:18:10.000Z,102962.50
2023-04-19T12:20:39.581Z,102938.28
2023-04-19T12:23:11.052Z,102953.75
2023-04-19T12:25:40.216Z,102937.50
2023-04-19T12:28:07.835Z,102951.91
2023-04-19T12:30:36.609Z,102950.25
2023-04-19T12:33:04.697Z,102948.06
2023-04-19T12:35:32.574Z,102953.31
2023-04-19T12:38:01.486Z,102943.19
2023-04-19T12:40:30.687Z,102934.66
2023-04-19T12:42:59.758Z,102948.28
2023-04-19T12:45:27.363Z,102933.81
2023-04-19T12:47:54.971Z,102933.31
2023-04-19T12:50:22.600Z,102954.16
2023-04-19T12:52:51.731Z,102931.31
2023-04-19T12:55:19.466Z,102929.81
2023-04-19T12:57:47.657Z,102930.00
2023-04-19T13:00:17.414Z,102918.41
2023-04-19T13:02:45.110Z,102935.53
2023-04-19T13:05:13.460Z,102925.44
2023-04-19T13:07:41.472Z,102920.25
2023-04-19T13:10:09.948Z,102945.53
2023-04-19T13:12:37.932Z,102914.25
2023-04-19T13:15:06.207Z,102914.34
2023-04-19T13:17:38.067Z,102916.56
2023-04-19T13:20:07.257Z,102911.56
2023-04-19T13:22:34.842Z,102930.00
2023-04-19T13:25:02.536Z,102906.84
2023-04-19T13:27:30.104Z,102906.84
2023-04-19T13:29:57.678Z,102890.75
2023-04-19T13:32:25.291Z,102884.53
2023-04-19T13:34:54.307Z,102895.44
2023-04-19T13:37:21.874Z,102890.09
2023-04-19T13:39:49.469Z,102897.31
2023-04-19T13:42:17.056Z,102893.34
2023-04-19T13:44:44.638Z,102903.47
2023-04-19T13:47:12.308Z,102887.06
2023-04-19T13:49:40.328Z,102878.34
2023-04-19T13:52:10.887Z,102879.34
2023-04-19T13:54:38.510Z,102874.47
2023-04-19T13:57:06.078Z,102876.66
2023-04-19T13:59:33.672Z,102870.97
2023-04-19T14:02:01.408Z,102870.13
2023-04-19T14:04:29.192Z,102848.16
2023-04-19T14:06:56.971Z,102865.09
2023-04-19T14:09:26.147Z,102872.81
2023-04-19T14:11:54.153Z,102854.03
2023-04-19T14:14:21.891Z,102854.53
2023-04-19T14:16:49.674Z,102857.88
2023-04-19T14:19:17.353Z,102851.00
2023-04-19T14:21:44.974Z,102857.72
2023-04-19T14:24:12.554Z,102856.56
2023-04-19T14:26:41.512Z,102847.84
2023-04-19T14:29:09.081Z,102843.44
2023-04-19T14:31:36.720Z,102849.53
2023-04-19T14:34:04.340Z,102851.84
2023-04-19T14:36:31.910Z,102861.41
2023-04-19T14:38:59.507Z,102832.72
2023-04-19T14:41:27.116Z,102827.72
2023-04-19T14:43:56.469Z,102834.06
2023-04-19T14:46:24.225Z,102829.03
2023-04-19T14:48:51.932Z,102834.25
2023-04-19T14:51:19.533Z,102827.88
2023-04-19T14:53:47.109Z,102830.22
2023-04-19T14:56:14.731Z,102829.38
2023-04-19T14:58:42.333Z,102827.19
2023-04-19T15:01:14.856Z,102824.69
2023-04-19T15:03:42.617Z,102828.53
2023-04-19T15:06:10.452Z,102826.00
2023-04-19T15:08:38.023Z,102824.03
2023-04-19T15:11:06.002Z,102816.47
2023-04-19T15:13:33.884Z,102813.13
2023-04-19T15:16:03.328Z,102809.25
2023-04-19T15:18:32.477Z,102806.44
2023-04-19T15:21:00.188Z,102806.44
2023-04-19T15:23:27.747Z,102797.88
2023-04-19T15:25:56.328Z,102820.59
2023-04-19T15:28:24.855Z,102805.56
2023-04-19T15:30:58.580Z,102807.06
2023-04-19T15:33:26.393Z,102801.69
2023-04-19T15:35:56.386Z,102800.19
2023-04-19T15:38:25.620Z,102806.41
2023-04-19T15:40:53.573Z,102790.47
2023-04-19T15:43:21.175Z,102799.72
2023-04-19T15:45:48.766Z,102787.13
2023-04-19T15:48:16.765Z,102799.50
2023-04-19T15:50:44.430Z,102800.72
2023-04-19T15:53:13.611Z,102790.81
2023-04-19T15:55:41.386Z,102799.34
2023-04-19T15:58:09.265Z,102789.66
2023-04-19T16:00:36.970Z,102787.13
2023-04-19T16:03:05.377Z,102805.69
2023-04-19T16:05:33.015Z,102777.91
2023-04-19T16:08:04.555Z,102783.59
2023-04-19T16:10:33.841Z,102777.06
2023-04-19T16:13:01.974Z,102788.75
2023-04-19T16:15:29.640Z,102785.56
2023-04-19T16:17:57.454Z,102794.13
2023-04-19T16:20:25.060Z,102799.38
2023-04-19T16:22:52.625Z,102786.97
2023-04-19T16:25:20.290Z,102788.09
2023-04-19T16:27:49.388Z,102806.22
2023-04-19T16:30:17.464Z,102788.25
2023-04-19T16:32:45.200Z,102777.44
2023-04-19T16:35:12.884Z,102792.91
2023-04-19T16:37:40.904Z,102774.25
2023-04-19T16:40:11.695Z,102777.34
2023-04-19T16:42:40.786Z,102784.91
2023-04-19T16:45:10.464Z,102779.88
2023-04-19T16:47:38.177Z,102771.94
2023-04-19T16:50:06.963Z,102771.78
2023-04-19T16:52:36.039Z,102771.41
2023-04-19T16:55:04.438Z,102765.84
2023-04-19T16:57:33.078Z,102763.66
2023-04-19T17:00:00.914Z,102765.56
2023-04-19T17:02:29.993Z,102782.69
2023-04-19T17:04:57.885Z,102756.94
2023-04-19T17:07:25.658Z,102772.84
2023-04-19T17:09:54.151Z,102790.34
2023-04-19T17:12:21.775Z,102773.59
2023-04-19T17:14:49.684Z,102776.00
2023-04-19T17:17:19.048Z,102755.25
2023-04-19T17:19:48.300Z,102770.47
2023-04-19T17:22:16.687Z,102772.06
2023-04-19T17:24:44.433Z,102744.13
2023-04-19T17:27:12.188Z,102765.13
2023-04-19T17:29:39.907Z,102753.44
2023-04-19T17:32:07.888Z,102759.94
2023-04-19T17:34:37.032Z,102769.41
2023-04-19T17:37:06.163Z,102751.25
2023-04-19T17:39:33.755Z,102743.84
2023-04-19T17:42:01.751Z,102757.31
2023-04-19T17:44:29.370Z,102757.69
2023-04-19T17:46:57.692Z,102744.94
2023-04-19T17:49:26.970Z,102749.53
2023-04-19T17:51:55.862Z,102728.41
2023-04-19T17:54:24.955Z,102743.56
2023-04-19T17:56:53.442Z,102733.50
2023-04-19T17:59:21.065Z,102746.91
2023-04-19T18:01:48.719Z,102742.84
2023-04-19T18:04:18.004Z,102733.97
2023-04-19T18:06:46.370Z,102733.47
2023-04-19T18:09:14.280Z,102734.06
2023-04-19T18:11:43.410Z,102740.53
2023-04-19T18:14:11.084Z,102736.59
2023-04-19T18:16:38.793Z,102735.78
2023-04-19T18:19:06.645Z,102731.03
2023-04-19T18:21:34.370Z,102739.06
2023-04-19T18:24:02.015Z,102732.22
2023-04-19T18:26:37.633Z,102736.41
2023-04-19T18:29:06.816Z,102737.56
2023-04-19T18:31:34.501Z,102739.41
2023-04-19T18:34:02.312Z,102734.66
2023-04-19T18:36:29.918Z,102740.44
2023-04-19T18:38:57.597Z,102731.13
2023-04-19T18:41:25.212Z,102736.91
2023-04-19T18:46:29.290Z,102739.31
2023-04-19T18:48:57.354Z,102732.91
2023-04-19T18:51:26.677Z,102751.13
2023-04-19T18:53:54.238Z,102728.44
2023-04-19T18:56:25.892Z,102737.53
2023-04-19T18:59:09.413Z,102735.03
2023-04-19T19:01:38.435Z,102725.06
2023-04-19T19:06:36.938Z,102728.44
2023-04-19T19:09:05.036Z,102732.09
2023-04-19T19:14:03.214Z,102733.22
2023-04-19T19:16:31.296Z,102736.03
2023-04-19T19:19:00.448Z,102728.63
2023-04-19T19:21:29.222Z,102731.69
2023-04-19T19:23:57.832Z,102731.84
2023-04-19T19:26:26.064Z,102729.31
2023-04-19T19:28:53.795Z,102733.50
2023-04-19T19:31:21.987Z,102738.41
2023-04-19T19:33:58.093Z,102736.59
2023-04-19T19:36:39.817Z,102721.75
2023-04-19T19:39:07.457Z,102722.16
2023-04-19T19:44:05.931Z,102722.88
2023-04-19T19:46:33.587Z,102735.47
2023-04-19T19:49:01.772Z,102742.47
2023-04-19T19:51:53.242Z,102724.69
2023-04-19T19:54:18.427Z,102725.09
2023-04-19T19:57:25.196Z,102731.16
2023-04-19T19:59:35.086Z,102730.69
2023-04-19T20:02:03.623Z,102743.19
2023-04-19T20:04:32.131Z,102733.09
2023-04-19T20:09:32.200Z,102729.44
2023-04-19T20:12:00.069Z,102730.94
2023-04-19T20:14:28.235Z,102736.13
2023-04-19T20:16:55.833Z,102742.94
2023-04-19T20:19:24.447Z,102737.19
2023-04-19T20:21:52.063Z,102739.97
2023-04-19T20:24:21.445Z,102741.53
2023-04-19T20:26:50.427Z,102742.63
2023-04-19T20:29:18.246Z,102744.84
2023-04-19T20:31:46.070Z,102744.28
2023-04-19T20:34:13.791Z,102740.91
2023-04-19T20:36:41.797Z,102744.41
2023-04-19T20:39:13.140Z,102734.88
2023-04-19T20:41:41.097Z,102743.56
2023-04-19T20:44:10.116Z,102728.34
2023-04-19T20:46:37.702Z,102729.41
2023-04-19T20:49:05.511Z,102722.56
2023-04-19T20:51:33.100Z,102723.69
2023-04-19T20:54:00.714Z,102722.72
2023-04-19T20:56:28.451Z,102715.59
2023-04-19T20:58:56.584Z,102719.06
2023-04-19T21:01:25.573Z,102710.53
2023-04-19T21:03:53.333Z,102718.63
2023-04-19T21:06:23.410Z,102719.31
2023-04-19T21:08:51.126Z,102717.66
2023-04-19T21:11:18.749Z,102713.56
2023-04-19T21:13:46.432Z,102711.88
2023-04-19T21:16:14.050Z,102720.13
2023-04-19T21:18:43.018Z,102715.91
2023-04-19T21:21:10.890Z,102707.09
2023-04-19T21:23:39.022Z,102718.13
2023-04-19T21:26:06.630Z,102707.88
2023-04-19T21:28:34.852Z,102718.38
2023-04-19T21:31:02.632Z,102716.00
2023-04-19T21:33:30.385Z,102703.38
2023-04-19T21:35:59.336Z,102708.13
2023-04-19T21:38:27.089Z,102714.66
2023-04-19T21:40:54.725Z,102701.53
2023-04-19T21:43:23.048Z,102701.63
2023-04-19T21:45:50.879Z,102702.47
2023-04-19T21:48:18.514Z,102700.09
2023-04-19T21:50:46.124Z,102708.19
2023-04-19T21:53:15.157Z,102702.03
2023-04-19T21:55:43.138Z,102684.41
2023-04-19T21:58:10.727Z,102693.09
2023-04-19T22:00:38.336Z,102689.03
2023-04-19T22:03:06.005Z,102690.56
2023-04-19T22:05:33.801Z,102695.88
2023-04-19T22:08:01.806Z,102688.63
2023-04-19T22:10:31.354Z,102684.41
2023-04-19T22:12:59.188Z,102681.06
2023-04-19T22:15:27.898Z,102684.69
2023-04-19T22:17:57.230Z,102671.50
2023-04-19T22:20:25.864Z,102671.66
2023-04-19T22:22:53.534Z,102676.38
2023-04-19T22:25:21.257Z,102674.56
2023-04-19T22:27:50.231Z,102668.31
2023-04-19T22:30:17.864Z,102670.97
2023-04-19T22:32:45.610Z,102667.47
2023-04-19T22:35:13.222Z,102665.50
2023-04-19T22:37:41.299Z,102660.19
2023-04-19T22:40:10.125Z,102681.31
2023-04-19T22:42:38.040Z,102660.78
2023-04-19T22:45:08.641Z,102667.19
2023-04-19T22:47:37.354Z,102665.38
2023-04-19T22:50:05.823Z,102657.41
2023-04-19T22:52:34.485Z,102643.28
2023-04-19T22:55:02.119Z,102650.84
2023-04-19T22:57:29.787Z,102637.56
2023-04-19T22:59:57.402Z,102636.19
2023-04-19T23:02:26.804Z,102630.22
2023-04-19T23:04:54.491Z,102624.34
2023-04-19T23:07:22.667Z,102626.59
2023-04-19T23:09:51.588Z,102626.22
2023-04-19T23:12:19.201Z,102607.06
2023-04-19T23:14:48.309Z,102613.09
2023-04-19T23:17:17.107Z,102618.41
2023-04-19T23:19:46.371Z,102612.13
2023-04-19T23:22:14.037Z,102624.69
2023-04-19T23:24:41.655Z,102624.69
2023-04-19T23:27:09.437Z,102611.53
2023-04-19T23:29:37.065Z,102619.50
2023-04-19T23:32:04.907Z,102618.09
2023-04-19T23:34:32.740Z,102616.72
2023-04-19T23:37:01.812Z,102609.91
2023-04-19T23:39:29.444Z,102614.09
2023-04-19T23:41:57.866Z,102610.31
2023-04-19T23:44:26.733Z,102599.84
2023-04-19T23:46:54.363Z,102601.09
2023-04-19T23:49:22.004Z,102607.78
2023-04-19T23:51:50.302Z,102602.59
2023-04-19T23:54:22.105Z,102592.34
2023-04-19T23:56:50.588Z,102574.03
2023-04-19T23:59:19.097Z,102582.97
